SWA1604 KBNA-KPIT
Flight info
| Callsign | SWA1604 |
|---|---|
| Flight time | 1h 21m |
| Altitude | 39000 |
| Route | KRSTA3 OLSIE IIU HNN FEWGA7 |
| Aircraft | B737/M-SDE2E3FGHIRWXY/LB1 |
Departure
| Time | 2026-04-30 20:45 |
|---|---|
| Airport | Nashville International Airport (KBNA) |
Arrival
| Time | 2026-04-30 22:06 |
|---|---|
| Airport | Pittsburgh International Airport (KPIT) |
| Time | Latitude | Longitude | Altitude | Speed | Heading |
|---|---|---|---|---|---|
| 2026-04-30 20:21 | 36.13379 | -86.66997 | 568 ft | 0 kts | 97° |
| 2026-04-30 20:30 | 36.13393 | -86.67070 | 571 ft | 4 kts | 137° |
| 2026-04-30 20:31 | 36.13420 | -86.67080 | 571 ft | 1 kts | 202° |
| 2026-04-30 20:33 | 36.13414 | -86.67082 | 570 ft | 2 kts | 202° |
| 2026-04-30 20:33 | 36.13399 | -86.67091 | 570 ft | 3 kts | 207° |
| 2026-04-30 20:34 | 36.13381 | -86.67147 | 566 ft | 4 kts | 268° |
| 2026-04-30 20:34 | 36.13397 | -86.67228 | 571 ft | 6 kts | 287° |
| 2026-04-30 20:35 | 36.13404 | -86.67280 | 567 ft | 6 kts | 262° |
| 2026-04-30 20:35 | 36.13377 | -86.67319 | 567 ft | 6 kts | 207° |
| 2026-04-30 20:35 | 36.13292 | -86.67354 | 569 ft | 7 kts | 195° |
| 2026-04-30 20:36 | 36.13240 | -86.67363 | 565 ft | 8 kts | 181° |
| 2026-04-30 20:36 | 36.13179 | -86.67369 | 567 ft | 10 kts | 185° |
| 2026-04-30 20:36 | 36.13039 | -86.67368 | 567 ft | 10 kts | 165° |
| 2026-04-30 20:37 | 36.12976 | -86.67329 | 569 ft | 10 kts | 143° |
| 2026-04-30 20:37 | 36.12969 | -86.67321 | 568 ft | 0 kts | 141° |
| 2026-04-30 20:37 | 36.12968 | -86.67321 | 572 ft | 0 kts | 141° |
| 2026-04-30 20:39 | 36.12910 | -86.67273 | 571 ft | 15 kts | 158° |
| 2026-04-30 20:39 | 36.12818 | -86.67291 | 567 ft | 14 kts | 224° |
| 2026-04-30 20:40 | 36.12675 | -86.67251 | 571 ft | 13 kts | 133° |
| 2026-04-30 20:40 | 36.12613 | -86.67170 | 572 ft | 13 kts | 131° |
| 2026-04-30 20:40 | 36.12544 | -86.67078 | 569 ft | 16 kts | 134° |
| 2026-04-30 20:41 | 36.12370 | -86.66848 | 563 ft | 20 kts | 123° |
| 2026-04-30 20:41 | 36.12320 | -86.66695 | 573 ft | 19 kts | 108° |
| 2026-04-30 20:41 | 36.12273 | -86.66547 | 573 ft | 18 kts | 136° |
| 2026-04-30 20:41 | 36.12153 | -86.66556 | 574 ft | 18 kts | 200° |
| 2026-04-30 20:42 | 36.12039 | -86.66600 | 577 ft | 17 kts | 198° |
| 2026-04-30 20:42 | 36.11929 | -86.66644 | 581 ft | 16 kts | 199° |
| 2026-04-30 20:42 | 36.11720 | -86.66729 | 593 ft | 15 kts | 198° |
| 2026-04-30 20:43 | 36.11622 | -86.66770 | 596 ft | 15 kts | 198° |
| 2026-04-30 20:43 | 36.11528 | -86.66807 | 600 ft | 14 kts | 197° |
| 2026-04-30 20:43 | 36.11438 | -86.66843 | 603 ft | 13 kts | 198° |
| 2026-04-30 20:44 | 36.11296 | -86.66804 | 602 ft | 13 kts | 96° |
| 2026-04-30 20:44 | 36.11338 | -86.66740 | 603 ft | 6 kts | 18° |
| 2026-04-30 20:44 | 36.12075 | -86.66445 | 583 ft | 126 kts | 18° |
| 2026-04-30 20:45 | 36.14072 | -86.65548 | 1831 ft | 161 kts | 24° |
| 2026-04-30 20:45 | 36.15172 | -86.64930 | 2328 ft | 190 kts | 24° |
| 2026-04-30 20:45 | 36.16508 | -86.64335 | 2701 ft | 220 kts | 16° |
| 2026-04-30 20:46 | 36.21452 | -86.62675 | 5322 ft | 251 kts | 15° |
| 2026-04-30 20:46 | 36.23163 | -86.62124 | 6274 ft | 257 kts | 13° |
| 2026-04-30 20:47 | 36.26636 | -86.60761 | 8037 ft | 272 kts | 17° |
| 2026-04-30 20:47 | 36.28431 | -86.59972 | 8960 ft | 276 kts | 16° |
| 2026-04-30 20:48 | 36.32155 | -86.58359 | 10501 ft | 296 kts | 14° |
| 2026-04-30 20:48 | 36.34189 | -86.57494 | 10799 ft | 320 kts | 14° |
| 2026-04-30 20:48 | 36.36330 | -86.56586 | 11469 ft | 329 kts | 14° |
| 2026-04-30 20:48 | 36.38517 | -86.55658 | 12273 ft | 335 kts | 13° |
| 2026-04-30 20:49 | 36.40747 | -86.54714 | 13113 ft | 340 kts | 13° |
| 2026-04-30 20:49 | 36.43016 | -86.53758 | 13934 ft | 347 kts | 13° |
| 2026-04-30 20:49 | 36.44537 | -86.53116 | 14422 ft | 351 kts | 13° |
| 2026-04-30 20:51 | 36.64999 | -86.43860 | 21076 ft | 388 kts | 14° |
| 2026-04-30 20:51 | 36.67502 | -86.42553 | 21780 ft | 392 kts | 14° |
| 2026-04-30 20:52 | 36.70005 | -86.41261 | 22492 ft | 395 kts | 13° |
| 2026-04-30 20:52 | 36.72557 | -86.39950 | 23318 ft | 396 kts | 12° |
| 2026-04-30 20:52 | 36.77718 | -86.37370 | 24445 ft | 404 kts | 11° |
| 2026-04-30 20:53 | 36.80349 | -86.36075 | 24968 ft | 409 kts | 10° |
| 2026-04-30 20:53 | 36.83016 | -86.34759 | 25500 ft | 413 kts | 10° |
| 2026-04-30 20:53 | 36.85648 | -86.33456 | 26012 ft | 417 kts | 9° |
| 2026-04-30 20:54 | 36.91120 | -86.30736 | 27030 ft | 425 kts | 9° |
| 2026-04-30 20:54 | 36.93884 | -86.29357 | 27573 ft | 429 kts | 9° |
| 2026-04-30 20:54 | 36.96675 | -86.27965 | 28054 ft | 433 kts | 9° |
| 2026-04-30 20:55 | 37.02287 | -86.25159 | 28990 ft | 440 kts | 8° |
| 2026-04-30 20:55 | 37.05146 | -86.23728 | 29426 ft | 444 kts | 8° |
| 2026-04-30 20:55 | 37.08027 | -86.22284 | 29870 ft | 448 kts | 8° |
| 2026-04-30 20:56 | 37.13869 | -86.19353 | 30636 ft | 455 kts | 8° |
| 2026-04-30 20:56 | 37.16821 | -86.17868 | 30978 ft | 458 kts | 8° |
| 2026-04-30 20:56 | 37.22778 | -86.14872 | 31735 ft | 463 kts | 7° |
| 2026-04-30 20:57 | 37.25768 | -86.13267 | 32039 ft | 473 kts | 11° |
| 2026-04-30 20:57 | 37.28703 | -86.11453 | 32333 ft | 480 kts | 13° |
| 2026-04-30 20:57 | 37.31674 | -86.09503 | 32700 ft | 483 kts | 13° |
| 2026-04-30 20:58 | 37.37599 | -86.05529 | 33543 ft | 481 kts | 13° |
| 2026-04-30 20:58 | 37.40562 | -86.03555 | 33848 ft | 482 kts | 13° |
| 2026-04-30 20:58 | 37.43532 | -86.01596 | 34298 ft | 480 kts | 13° |
| 2026-04-30 20:58 | 37.46496 | -85.99652 | 34709 ft | 477 kts | 12° |
| 2026-04-30 20:59 | 37.52343 | -85.95841 | 35325 ft | 477 kts | 12° |
| 2026-04-30 20:59 | 37.55290 | -85.93924 | 35613 ft | 477 kts | 12° |
| 2026-04-30 21:00 | 37.61177 | -85.90081 | 36270 ft | 474 kts | 12° |
| 2026-04-30 21:00 | 37.67031 | -85.86249 | 36863 ft | 474 kts | 12° |
| 2026-04-30 21:01 | 37.72886 | -85.82412 | 37388 ft | 474 kts | 12° |
| 2026-04-30 21:01 | 37.75818 | -85.80484 | 37675 ft | 473 kts | 12° |
| 2026-04-30 21:01 | 37.81658 | -85.76642 | 38180 ft | 473 kts | 12° |
| 2026-04-30 21:02 | 37.84578 | -85.74719 | 38446 ft | 472 kts | 12° |
| 2026-04-30 21:02 | 37.87481 | -85.72803 | 38742 ft | 470 kts | 12° |
| 2026-04-30 21:02 | 37.90383 | -85.70889 | 38945 ft | 472 kts | 13° |
| 2026-04-30 21:02 | 37.93299 | -85.68967 | 39056 ft | 474 kts | 13° |
| 2026-04-30 21:03 | 37.96240 | -85.67027 | 39055 ft | 477 kts | 13° |
| 2026-04-30 21:03 | 38.02121 | -85.63127 | 39071 ft | 475 kts | 13° |
| 2026-04-30 21:04 | 38.07879 | -85.58944 | 39053 ft | 496 kts | 28° |
| 2026-04-30 21:04 | 38.09537 | -85.56864 | 39069 ft | 515 kts | 41° |
| 2026-04-30 21:04 | 38.12836 | -85.46810 | 39117 ft | 545 kts | 72° |
| 2026-04-30 21:05 | 38.14249 | -85.38917 | 39095 ft | 547 kts | 73° |
| 2026-04-30 21:05 | 38.15936 | -85.29493 | 39072 ft | 547 kts | 72° |
| 2026-04-30 21:06 | 38.17716 | -85.20170 | 39069 ft | 545 kts | 71° |
| 2026-04-30 21:06 | 38.19561 | -85.10804 | 39079 ft | 545 kts | 71° |
| 2026-04-30 21:07 | 38.21401 | -85.01456 | 39063 ft | 545 kts | 71° |
| 2026-04-30 21:07 | 38.23225 | -84.92101 | 39064 ft | 545 kts | 71° |
| 2026-04-30 21:08 | 38.25036 | -84.82740 | 39064 ft | 545 kts | 71° |
| 2026-04-30 21:08 | 38.26838 | -84.73379 | 39067 ft | 545 kts | 71° |
| 2026-04-30 21:09 | 38.28620 | -84.64073 | 39065 ft | 545 kts | 71° |
| 2026-04-30 21:09 | 38.30411 | -84.54686 | 39068 ft | 545 kts | 71° |
| 2026-04-30 21:10 | 38.32195 | -84.45292 | 39071 ft | 545 kts | 71° |
| 2026-04-30 21:10 | 38.33971 | -84.35897 | 39069 ft | 545 kts | 71° |
| 2026-04-30 21:11 | 38.35740 | -84.26496 | 39085 ft | 545 kts | 71° |
| 2026-04-30 21:11 | 38.37492 | -84.17140 | 39068 ft | 545 kts | 71° |
| 2026-04-30 21:12 | 38.39246 | -84.07726 | 39077 ft | 545 kts | 71° |
| 2026-04-30 21:12 | 38.40991 | -83.98315 | 39074 ft | 545 kts | 71° |
| 2026-04-30 21:13 | 38.42727 | -83.88910 | 39083 ft | 545 kts | 72° |
| 2026-04-30 21:13 | 38.44447 | -83.79544 | 39082 ft | 545 kts | 72° |
| 2026-04-30 21:14 | 38.46170 | -83.70115 | 39077 ft | 545 kts | 72° |
| 2026-04-30 21:14 | 38.47883 | -83.60699 | 39098 ft | 544 kts | 72° |
| 2026-04-30 21:15 | 38.49587 | -83.51287 | 39067 ft | 543 kts | 72° |
| 2026-04-30 21:15 | 38.51273 | -83.41922 | 39075 ft | 540 kts | 72° |
| 2026-04-30 21:16 | 38.52934 | -83.32657 | 39063 ft | 538 kts | 72° |
| 2026-04-30 21:16 | 38.54595 | -83.23341 | 39064 ft | 536 kts | 72° |
| 2026-04-30 21:17 | 38.56242 | -83.14067 | 39072 ft | 534 kts | 72° |
| 2026-04-30 21:17 | 38.57874 | -83.04832 | 39077 ft | 532 kts | 73° |
| 2026-04-30 21:18 | 38.59493 | -82.95619 | 39075 ft | 530 kts | 73° |
| 2026-04-30 21:18 | 38.61104 | -82.86411 | 39068 ft | 530 kts | 73° |
| 2026-04-30 21:19 | 38.62703 | -82.77229 | 39083 ft | 529 kts | 73° |
| 2026-04-30 21:19 | 38.64299 | -82.68021 | 39070 ft | 530 kts | 73° |
| 2026-04-30 21:20 | 38.65885 | -82.58812 | 39130 ft | 530 kts | 73° |
| 2026-04-30 21:20 | 38.67458 | -82.49642 | 39064 ft | 531 kts | 74° |
| 2026-04-30 21:21 | 38.69031 | -82.40418 | 39067 ft | 530 kts | 74° |
| 2026-04-30 21:22 | 38.71375 | -82.26590 | 39046 ft | 528 kts | 74° |
| 2026-04-30 21:23 | 38.74969 | -82.08513 | 39032 ft | 510 kts | 52° |
| 2026-04-30 21:23 | 38.77021 | -82.04940 | 39064 ft | 490 kts | 36° |
| 2026-04-30 21:23 | 38.82380 | -82.00016 | 39046 ft | 463 kts | 11° |
| 2026-04-30 21:24 | 38.88404 | -81.97615 | 39079 ft | 458 kts | 4° |
| 2026-04-30 21:24 | 38.94560 | -81.95493 | 39058 ft | 460 kts | 4° |
| 2026-04-30 21:25 | 39.03871 | -81.92173 | 39043 ft | 462 kts | 5° |
| 2026-04-30 21:26 | 39.13142 | -81.88762 | 39055 ft | 460 kts | 6° |
| 2026-04-30 21:27 | 39.22325 | -81.85368 | 39043 ft | 458 kts | 6° |
| 2026-04-30 21:27 | 39.28447 | -81.83104 | 39045 ft | 456 kts | 6° |
| 2026-04-30 21:28 | 39.34552 | -81.80846 | 38823 ft | 460 kts | 6° |
| 2026-04-30 21:28 | 39.37648 | -81.79704 | 38243 ft | 462 kts | 6° |
| 2026-04-30 21:28 | 39.43796 | -81.77417 | 37033 ft | 458 kts | 6° |
| 2026-04-30 21:29 | 39.46851 | -81.76276 | 36609 ft | 452 kts | 6° |
| 2026-04-30 21:29 | 39.55801 | -81.72931 | 35290 ft | 440 kts | 6° |
| 2026-04-30 21:30 | 39.61645 | -81.70751 | 34419 ft | 433 kts | 5° |
| 2026-04-30 21:31 | 39.70197 | -81.67553 | 33021 ft | 423 kts | 5° |
| 2026-04-30 21:31 | 39.75795 | -81.65453 | 32188 ft | 415 kts | 6° |
| 2026-04-30 21:32 | 39.81311 | -81.63380 | 31347 ft | 408 kts | 5° |
| 2026-04-30 21:32 | 39.84030 | -81.62359 | 30941 ft | 405 kts | 5° |
| 2026-04-30 21:32 | 39.86724 | -81.61346 | 30543 ft | 401 kts | 5° |
| 2026-04-30 21:32 | 39.89396 | -81.60340 | 30153 ft | 398 kts | 5° |
| 2026-04-30 21:33 | 39.92047 | -81.59342 | 29687 ft | 395 kts | 5° |
| 2026-04-30 21:33 | 39.97279 | -81.57366 | 28878 ft | 386 kts | 5° |
| 2026-04-30 21:33 | 39.99831 | -81.56399 | 28573 ft | 379 kts | 5° |
| 2026-04-30 21:34 | 40.02346 | -81.55446 | 28211 ft | 373 kts | 5° |
| 2026-04-30 21:34 | 40.07291 | -81.53578 | 27440 ft | 365 kts | 5° |
| 2026-04-30 21:34 | 40.09695 | -81.52670 | 27035 ft | 363 kts | 5° |
| 2026-04-30 21:35 | 40.12105 | -81.51757 | 26642 ft | 360 kts | 5° |
| 2026-04-30 21:35 | 40.14497 | -81.50850 | 26250 ft | 357 kts | 5° |
| 2026-04-30 21:35 | 40.16864 | -81.49841 | 25869 ft | 364 kts | 17° |
| 2026-04-30 21:35 | 40.18958 | -81.47827 | 25449 ft | 386 kts | 41° |
| 2026-04-30 21:36 | 40.20354 | -81.44762 | 25042 ft | 400 kts | 69° |
| 2026-04-30 21:36 | 40.20678 | -81.41160 | 24840 ft | 403 kts | 96° |
| 2026-04-30 21:37 | 40.17733 | -81.31066 | 23704 ft | 396 kts | 115° |
| 2026-04-30 21:37 | 40.16623 | -81.27764 | 23207 ft | 395 kts | 116° |
| 2026-04-30 21:37 | 40.15535 | -81.24479 | 22758 ft | 393 kts | 115° |
| 2026-04-30 21:37 | 40.14463 | -81.21198 | 22316 ft | 391 kts | 115° |
| 2026-04-30 21:38 | 40.13408 | -81.17937 | 21861 ft | 389 kts | 115° |
| 2026-04-30 21:38 | 40.12364 | -81.14694 | 21464 ft | 386 kts | 115° |
| 2026-04-30 21:38 | 40.11327 | -81.11471 | 21046 ft | 384 kts | 115° |
| 2026-04-30 21:38 | 40.10307 | -81.08305 | 20638 ft | 382 kts | 115° |
| 2026-04-30 21:39 | 40.09278 | -81.05111 | 20223 ft | 380 kts | 115° |
| 2026-04-30 21:39 | 40.08253 | -81.01944 | 19817 ft | 378 kts | 115° |
| 2026-04-30 21:39 | 40.07226 | -80.98774 | 19411 ft | 376 kts | 115° |
| 2026-04-30 21:39 | 40.06213 | -80.95643 | 19007 ft | 375 kts | 115° |
| 2026-04-30 21:40 | 40.05199 | -80.92510 | 18602 ft | 373 kts | 115° |
| 2026-04-30 21:40 | 40.04189 | -80.89395 | 18158 ft | 372 kts | 115° |
| 2026-04-30 21:40 | 40.04016 | -80.88863 | 18071 ft | 372 kts | 115° |
| 2026-04-30 21:41 | 40.03431 | -80.86990 | 17788 ft | 371 kts | 109° |
| 2026-04-30 21:42 | 40.03057 | -80.83686 | 17359 ft | 367 kts | 84° |
| 2026-04-30 21:42 | 40.03601 | -80.80506 | 17050 ft | 354 kts | 63° |
| 2026-04-30 21:42 | 40.04796 | -80.77802 | 16738 ft | 338 kts | 44° |
| 2026-04-30 21:42 | 40.06407 | -80.75635 | 16396 ft | 329 kts | 37° |
| 2026-04-30 21:43 | 40.08076 | -80.73600 | 15966 ft | 327 kts | 36° |
| 2026-04-30 21:43 | 40.09176 | -80.72259 | 15716 ft | 326 kts | 37° |
| 2026-04-30 21:43 | 40.11369 | -80.69546 | 15215 ft | 324 kts | 37° |
| 2026-04-30 21:43 | 40.12997 | -80.67508 | 14810 ft | 324 kts | 38° |
| 2026-04-30 21:44 | 40.14582 | -80.65420 | 14464 ft | 321 kts | 39° |
| 2026-04-30 21:44 | 40.16132 | -80.63323 | 14092 ft | 320 kts | 39° |
| 2026-04-30 21:44 | 40.17671 | -80.61240 | 13712 ft | 318 kts | 39° |
| 2026-04-30 21:44 | 40.19195 | -80.59186 | 13290 ft | 316 kts | 39° |
| 2026-04-30 21:45 | 40.20721 | -80.57140 | 12902 ft | 313 kts | 39° |
| 2026-04-30 21:45 | 40.22243 | -80.55102 | 12500 ft | 311 kts | 39° |
| 2026-04-30 21:45 | 40.23749 | -80.53089 | 12108 ft | 309 kts | 40° |
| 2026-04-30 21:45 | 40.25247 | -80.51080 | 11715 ft | 307 kts | 40° |
| 2026-04-30 21:46 | 40.26697 | -80.49039 | 11323 ft | 308 kts | 49° |
| 2026-04-30 21:46 | 40.27778 | -80.46621 | 10999 ft | 307 kts | 59° |
| 2026-04-30 21:46 | 40.28733 | -80.44117 | 10621 ft | 307 kts | 60° |
| 2026-04-30 21:46 | 40.29524 | -80.42025 | 10295 ft | 306 kts | 60° |
| 2026-04-30 21:47 | 40.29597 | -80.41833 | 10263 ft | 306 kts | 60° |
| 2026-04-30 21:51 | 40.30509 | -80.39453 | 10096 ft | 297 kts | 59° |
| 2026-04-30 21:52 | 40.31443 | -80.37060 | 9775 ft | 293 kts | 59° |
| 2026-04-30 21:52 | 40.32378 | -80.34687 | 9376 ft | 291 kts | 59° |
| 2026-04-30 21:52 | 40.33295 | -80.32367 | 9021 ft | 288 kts | 59° |
| 2026-04-30 21:52 | 40.34226 | -80.30014 | 8667 ft | 286 kts | 59° |
| 2026-04-30 21:53 | 40.35121 | -80.27739 | 8346 ft | 283 kts | 59° |
| 2026-04-30 21:53 | 40.36021 | -80.25448 | 8006 ft | 281 kts | 59° |
| 2026-04-30 21:53 | 40.36912 | -80.23179 | 7672 ft | 280 kts | 59° |
| 2026-04-30 21:53 | 40.37801 | -80.20919 | 7329 ft | 278 kts | 59° |
| 2026-04-30 21:54 | 40.38691 | -80.18667 | 6986 ft | 277 kts | 59° |
| 2026-04-30 21:54 | 40.39573 | -80.16422 | 6660 ft | 276 kts | 60° |
| 2026-04-30 21:54 | 40.40014 | -80.13962 | 6296 ft | 281 kts | 88° |
| 2026-04-30 21:54 | 40.39946 | -80.11419 | 5983 ft | 278 kts | 91° |
| 2026-04-30 21:55 | 40.39858 | -80.08889 | 5647 ft | 277 kts | 91° |
| 2026-04-30 21:55 | 40.39776 | -80.06368 | 5309 ft | 276 kts | 90° |
| 2026-04-30 21:55 | 40.39700 | -80.03866 | 5045 ft | 271 kts | 90° |
| 2026-04-30 21:55 | 40.39629 | -80.01467 | 4933 ft | 262 kts | 90° |
| 2026-04-30 21:56 | 40.39580 | -79.99118 | 4820 ft | 252 kts | 88° |
| 2026-04-30 21:56 | 40.39580 | -79.96880 | 4800 ft | 239 kts | 86° |
| 2026-04-30 21:56 | 40.39599 | -79.94751 | 4769 ft | 229 kts | 86° |
| 2026-04-30 21:56 | 40.39623 | -79.92667 | 4783 ft | 228 kts | 86° |
| 2026-04-30 21:57 | 40.39653 | -79.90533 | 4726 ft | 248 kts | 86° |
| 2026-04-30 21:57 | 40.39665 | -79.88160 | 4489 ft | 266 kts | 89° |
| 2026-04-30 21:57 | 40.39635 | -79.85723 | 4226 ft | 267 kts | 88° |
| 2026-04-30 21:57 | 40.39645 | -79.83332 | 4032 ft | 263 kts | 82° |
| 2026-04-30 21:58 | 40.40294 | -79.81160 | 4008 ft | 255 kts | 44° |
| 2026-04-30 21:58 | 40.41702 | -79.79849 | 4016 ft | 247 kts | 17° |
| 2026-04-30 21:58 | 40.43364 | -79.79486 | 4011 ft | 241 kts | 353° |
| 2026-04-30 21:58 | 40.44949 | -79.80054 | 3996 ft | 235 kts | 330° |
| 2026-04-30 21:59 | 40.46170 | -79.81424 | 4016 ft | 231 kts | 307° |
| 2026-04-30 21:59 | 40.46905 | -79.83302 | 4011 ft | 233 kts | 286° |
| 2026-04-30 21:59 | 40.47144 | -79.85374 | 3995 ft | 224 kts | 277° |
| 2026-04-30 22:00 | 40.47342 | -79.89206 | 3981 ft | 196 kts | 276° |
| 2026-04-30 22:00 | 40.47516 | -79.92523 | 4010 ft | 173 kts | 277° |
| 2026-04-30 22:00 | 40.47605 | -79.94105 | 4003 ft | 173 kts | 277° |
| 2026-04-30 22:01 | 40.47696 | -79.95690 | 4013 ft | 175 kts | 277° |
| 2026-04-30 22:01 | 40.47784 | -79.97253 | 4014 ft | 170 kts | 277° |
| 2026-04-30 22:01 | 40.47869 | -79.98764 | 4005 ft | 159 kts | 277° |
| 2026-04-30 22:01 | 40.47956 | -80.00147 | 4001 ft | 147 kts | 279° |
| 2026-04-30 22:02 | 40.48041 | -80.01511 | 4015 ft | 152 kts | 277° |
| 2026-04-30 22:02 | 40.48097 | -80.02911 | 3932 ft | 154 kts | 275° |
| 2026-04-30 22:02 | 40.48139 | -80.04327 | 3730 ft | 154 kts | 275° |
| 2026-04-30 22:02 | 40.48173 | -80.05672 | 3509 ft | 141 kts | 275° |
| 2026-04-30 22:03 | 40.48204 | -80.06923 | 3334 ft | 138 kts | 275° |
| 2026-04-30 22:03 | 40.48235 | -80.08145 | 3179 ft | 135 kts | 275° |
| 2026-04-30 22:03 | 40.48266 | -80.09399 | 2975 ft | 136 kts | 275° |
| 2026-04-30 22:03 | 40.48296 | -80.10617 | 2797 ft | 131 kts | 275° |
| 2026-04-30 22:04 | 40.48327 | -80.11816 | 2614 ft | 132 kts | 275° |
| 2026-04-30 22:04 | 40.48365 | -80.13000 | 2403 ft | 132 kts | 275° |
| 2026-04-30 22:04 | 40.48476 | -80.15452 | 1912 ft | 133 kts | 268° |
| 2026-04-30 22:05 | 40.48508 | -80.16636 | 1688 ft | 127 kts | 268° |
| 2026-04-30 22:05 | 40.48507 | -80.17794 | 1579 ft | 128 kts | 267° |
| 2026-04-30 22:05 | 40.48522 | -80.18982 | 1424 ft | 130 kts | 267° |
| 2026-04-30 22:05 | 40.48534 | -80.20138 | 1332 ft | 125 kts | 271° |
| 2026-04-30 22:06 | 40.48574 | -80.21238 | 1174 ft | 115 kts | 268° |
| 2026-04-30 22:06 | 40.48596 | -80.22781 | 1151 ft | 46 kts | 272° |
| 2026-04-30 22:06 | 40.48679 | -80.23155 | 1149 ft | 38 kts | 298° |
| 2026-04-30 22:07 | 40.48766 | -80.23356 | 1152 ft | 22 kts | 294° |
| 2026-04-30 22:07 | 40.48792 | -80.23550 | 1152 ft | 21 kts | 272° |
| 2026-04-30 22:07 | 40.48800 | -80.23742 | 1152 ft | 21 kts | 276° |
| 2026-04-30 22:07 | 40.48806 | -80.23920 | 1153 ft | 18 kts | 275° |
| 2026-04-30 22:08 | 40.48888 | -80.24000 | 1152 ft | 17 kts | 5° |
| 2026-04-30 22:08 | 40.49001 | -80.23984 | 1151 ft | 16 kts | 2° |
| 2026-04-30 22:08 | 40.49112 | -80.23993 | 1153 ft | 16 kts | 359° |
| 2026-04-30 22:08 | 40.49217 | -80.23991 | 1154 ft | 15 kts | 4° |
| 2026-04-30 22:09 | 40.49319 | -80.23985 | 1154 ft | 14 kts | 2° |
| 2026-04-30 22:09 | 40.49410 | -80.24005 | 1154 ft | 14 kts | 308° |
| 2026-04-30 22:09 | 40.49417 | -80.24125 | 1154 ft | 13 kts | 269° |
| 2026-04-30 22:09 | 40.49436 | -80.24240 | 1153 ft | 13 kts | 292° |
| 2026-04-30 22:10 | 40.49481 | -80.24336 | 1154 ft | 12 kts | 312° |
| 2026-04-30 22:10 | 40.49551 | -80.24398 | 1153 ft | 12 kts | 350° |
| 2026-04-30 22:10 | 40.49616 | -80.24381 | 1153 ft | 5 kts | 335° |
| 2026-04-30 22:10 | 40.49640 | -80.24415 | 1154 ft | 5 kts | 307° |
| 2026-04-30 22:11 | 40.49654 | -80.24439 | 1153 ft | 0 kts | 308° |
| 2026-04-30 22:19 | 40.48501 | -80.16409 | 1687 ft | 125 kts | 267° |
| 2026-04-30 22:19 | 40.48511 | -80.17046 | 1644 ft | 127 kts | 266° |
| 2026-04-30 22:19 | 40.48506 | -80.18369 | 1149 ft | 0 kts | 136° |
| 2026-04-30 22:20 | 40.48270 | -80.07655 | 1059 ft | 0 kts | 15° |
| 2026-04-30 22:20 | 40.48271 | -80.09600 | 2946 ft | 135 kts | 275° |
| 2026-04-30 22:21 | 40.48290 | -80.10374 | 2825 ft | 133 kts | 275° |
| 2026-04-30 22:21 | 40.48385 | -80.11270 | 2707 ft | 153 kts | 232° |
| 2026-04-30 22:21 | 40.48415 | -80.12434 | 2555 ft | 129 kts | 189° |
| 2026-04-30 22:21 | 40.48431 | -80.13656 | 1679 ft | 153 kts | 283° |
| 2026-04-30 22:22 | 40.48564 | -80.14061 | 1145 ft | 0 kts | 58° |
| 2026-04-30 22:23 | 40.48466 | -80.14992 | 1993 ft | 136 kts | 270° |
| 2026-04-30 22:23 | 40.48483 | -80.15745 | 1819 ft | 131 kts | 266° |
| 2026-04-30 22:23 | 40.48510 | -80.16750 | 1672 ft | 127 kts | 266° |
| 2026-04-30 22:24 | 40.48506 | -80.17755 | 1581 ft | 128 kts | 267° |
| 2026-04-30 22:24 | 40.48519 | -80.18817 | 1438 ft | 132 kts | 267° |
| 2026-04-30 22:24 | 40.48527 | -80.19876 | 1363 ft | 126 kts | 270° |
| 2026-04-30 22:24 | 40.48564 | -80.20857 | 1214 ft | 120 kts | 270° |
| 2026-04-30 22:25 | 40.48590 | -80.21785 | 1150 ft | 106 kts | 267° |
| 2026-04-30 22:25 | 40.48587 | -80.22488 | 1151 ft | 68 kts | 272° |
| 2026-04-30 22:25 | 40.48593 | -80.22672 | 1151 ft | 54 kts | 272° |